Time;durP1;ratioP1;P1;durP2;ratioP2;P2;SDS_P1;SDS_P2;PMS_P1;PMS_P2;Temp;Humidity;BMP_temperature;BMP_pressure;BME280_temperature;BME280_humidity;BME280_pressure;Samples;Min_cycle;Max_cycle;Signal;HPM_P1;HPM_P2
2022/08/18 00:02:27;;;;;;;7.37;5.70;;;;;;;;;;1777455;80;21048;-66
2022/08/18 00:04:53;;;;;;;8.18;5.80;;;;;;;;;;1768266;80;21426;-66
2022/08/18 00:07:21;;;;;;;9.40;6.45;;;;;;;;;;1764090;80;21112;-65
2022/08/18 00:09:47;;;;;;;10.48;6.70;;;;;;;;;;1781143;80;21600;-65
2022/08/18 00:12:16;;;;;;;10.72;7.35;;;;;;;;;;1770738;80;21036;-65
2022/08/18 00:14:43;;;;;;;10.70;6.95;;;;;;;;;;1779057;80;21103;-66
2022/08/18 00:17:09;;;;;;;10.63;6.30;;;;;;;;;;1761476;80;21004;-66
2022/08/18 00:19:34;;;;;;;10.78;7.00;;;;;;;;;;1762255;80;21008;-66
2022/08/18 00:22:00;;;;;;;9.30;7.62;;;;;;;;;;1763457;80;21032;-66
2022/08/18 00:24:27;;;;;;;12.60;6.80;;;;;;;;;;1761459;80;21099;-66
2022/08/18 00:26:53;;;;;;;11.40;7.05;;;;;;;;;;1761733;81;21583;-66
2022/08/18 00:29:19;;;;;;;11.78;7.40;;;;;;;;;;1761086;81;21540;-66
2022/08/18 00:31:45;;;;;;;8.98;7.28;;;;;;;;;;1763841;81;21064;-66
2022/08/18 00:34:11;;;;;;;11.57;6.95;;;;;;;;;;1761500;80;21021;-66
2022/08/18 00:36:37;;;;;;;9.45;6.92;;;;;;;;;;1773866;81;21076;-65
2022/08/18 00:39:03;;;;;;;8.20;7.12;;;;;;;;;;1775953;81;20993;-65
2022/08/18 00:41:31;;;;;;;8.23;6.72;;;;;;;;;;1762745;81;21099;-65
2022/08/18 00:43:59;;;;;;;8.63;7.12;;;;;;;;;;1761685;81;21076;-65
2022/08/18 00:46:30;;;;;;;9.25;6.20;;;;;;;;;;1762592;80;21016;-66
2022/08/18 00:48:56;;;;;;;9.30;6.37;;;;;;;;;;1759367;81;21056;-66
2022/08/18 00:51:33;;;;;;;7.53;5.72;;;;;;;;;;1761798;80;20985;-65
2022/08/18 00:54:04;;;;;;;8.78;6.92;;;;;;;;;;1730620;83;21694;-65
2022/08/18 00:56:32;;;;;;;9.88;6.92;;;;;;;;;;1773044;81;21001;-65
2022/08/18 00:59:05;;;;;;;12.60;6.05;;;;;;;;;;1773725;81;21017;-66
2022/08/18 01:04:25;;;;;;;8.05;5.85;;;;;;;;;;1709716;79;21676;-66
2022/08/18 01:06:56;;;;;;;8.28;6.42;;;;;;;;;;1665056;84;21064;-65
2022/08/18 01:09:22;;;;;;;7.03;5.92;;;;;;;;;;1695143;84;21056;-66
2022/08/18 01:11:50;;;;;;;8.18;5.95;;;;;;;;;;1687378;83;21061;-65
2022/08/18 01:14:17;;;;;;;9.35;5.87;;;;;;;;;;1685748;83;21034;-65
2022/08/18 01:22:28;;;;;;;9.80;6.15;;;;;;;;;;1764631;81;20999;-65
2022/08/18 01:27:40;;;;;;;10.43;6.10;;;;;;;;;;1731550;81;21011;-65
2022/08/18 01:30:08;;;;;;;7.85;5.95;;;;;;;;;;1728947;83;21004;-65
2022/08/18 01:32:35;;;;;;;8.45;6.87;;;;;;;;;;1731533;81;20992;-65
2022/08/18 01:35:01;;;;;;;10.08;6.22;;;;;;;;;;1731542;81;21004;-66
2022/08/18 01:37:27;;;;;;;10.28;6.60;;;;;;;;;;1762392;81;21602;-65
2022/08/18 01:39:54;;;;;;;8.58;5.78;;;;;;;;;;1736125;81;21051;-66
2022/08/18 01:42:20;;;;;;;8.93;5.25;;;;;;;;;;1731584;81;21135;-65
2022/08/18 01:44:46;;;;;;;8.68;5.50;;;;;;;;;;1729373;81;21595;-65
2022/08/18 01:47:12;;;;;;;8.60;6.25;;;;;;;;;;1727686;81;21004;-66
2022/08/18 01:49:40;;;;;;;7.10;5.95;;;;;;;;;;1762631;81;21019;-65
2022/08/18 01:52:07;;;;;;;10.30;4.95;;;;;;;;;;1728124;81;21028;-65
2022/08/18 01:54:33;;;;;;;7.33;5.20;;;;;;;;;;1734170;81;21000;-66
2022/08/18 01:56:59;;;;;;;9.00;5.35;;;;;;;;;;1734809;81;20996;-65
2022/08/18 01:59:25;;;;;;;10.30;6.15;;;;;;;;;;1729009;83;21519;-65
2022/08/18 02:01:54;;;;;;;7.17;5.60;;;;;;;;;;1737463;81;21023;-66
2022/08/18 02:04:20;;;;;;;8.18;5.12;;;;;;;;;;1728949;82;21153;-66
2022/08/18 02:06:46;;;;;;;8.68;5.80;;;;;;;;;;1754307;82;21493;-65
2022/08/18 02:09:12;;;;;;;9.53;5.35;;;;;;;;;;1751578;82;21034;-65
2022/08/18 02:11:38;;;;;;;8.90;5.30;;;;;;;;;;1754385;82;21041;-65
2022/08/18 02:14:04;;;;;;;8.50;6.00;;;;;;;;;;1754316;82;21046;-65
2022/08/18 02:16:32;;;;;;;8.88;5.95;;;;;;;;;;1754133;81;20990;-65
2022/08/18 02:18:58;;;;;;;9.30;4.97;;;;;;;;;;1751653;82;21060;-65
2022/08/18 02:21:24;;;;;;;8.18;5.25;;;;;;;;;;1751109;82;21138;-65
2022/08/18 02:23:50;;;;;;;9.60;6.33;;;;;;;;;;1754202;82;21148;-66
2022/08/18 02:26:16;;;;;;;7.72;5.00;;;;;;;;;;1754317;82;21021;-65
2022/08/18 02:28:42;;;;;;;7.17;5.28;;;;;;;;;;1749085;82;21093;-65
2022/08/18 02:31:10;;;;;;;9.00;6.17;;;;;;;;;;1722616;81;21552;-65
2022/08/18 02:33:36;;;;;;;8.48;5.85;;;;;;;;;;1729161;81;21162;-65
2022/08/18 02:36:02;;;;;;;7.50;5.10;;;;;;;;;;1751964;82;21029;-65
2022/08/18 02:38:28;;;;;;;8.95;5.08;;;;;;;;;;1753954;82;21034;-66
2022/08/18 02:40:55;;;;;;;6.92;5.42;;;;;;;;;;1746533;82;21065;-65
2022/08/18 02:43:22;;;;;;;9.75;5.83;;;;;;;;;;1754142;82;21525;-65
2022/08/18 02:45:47;;;;;;;9.28;5.28;;;;;;;;;;1754120;82;21037;-65
2022/08/18 02:48:13;;;;;;;8.58;5.12;;;;;;;;;;1754012;81;21065;-65
2022/08/18 02:50:48;;;;;;;8.00;5.90;;;;;;;;;;1751912;82;21026;-65
2022/08/18 02:53:07;;;;;;;9.50;5.12;;;;;;;;;;1751846;82;21556;-65
2022/08/18 02:55:34;;;;;;;10.93;5.17;;;;;;;;;;1754239;82;21038;-66
2022/08/18 02:58:01;;;;;;;9.83;5.95;;;;;;;;;;1753432;82;21074;-65
2022/08/18 03:00:27;;;;;;;11.20;5.35;;;;;;;;;;1749440;82;21061;-65
2022/08/18 03:02:53;;;;;;;9.15;4.97;;;;;;;;;;1740982;81;21089;-65
2022/08/18 03:05:19;;;;;;;9.50;5.90;;;;;;;;;;1736467;82;21520;-65
2022/08/18 03:07:45;;;;;;;8.13;5.20;;;;;;;;;;1708997;84;21033;-66
2022/08/18 03:10:13;;;;;;;8.00;5.58;;;;;;;;;;1708845;84;21025;-65
2022/08/18 03:12:42;;;;;;;6.70;5.42;;;;;;;;;;1716030;82;21588;-65
2022/08/18 03:15:11;;;;;;;7.15;5.03;;;;;;;;;;1735393;82;21011;-65
2022/08/18 03:17:37;;;;;;;7.37;5.17;;;;;;;;;;1741637;82;20999;-66
2022/08/18 03:20:03;;;;;;;7.28;4.72;;;;;;;;;;1743012;82;21050;-65
2022/08/18 03:22:30;;;;;;;8.30;5.25;;;;;;;;;;1708939;84;21093;-66
2022/08/18 03:24:57;;;;;;;8.75;5.60;;;;;;;;;;1708807;84;21542;-65
2022/08/18 03:27:23;;;;;;;7.83;4.87;;;;;;;;;;1737248;82;21012;-65
2022/08/18 03:29:50;;;;;;;9.33;4.97;;;;;;;;;;1738547;82;21017;-65
2022/08/18 03:32:16;;;;;;;9.23;5.15;;;;;;;;;;1741628;82;21021;-65
2022/08/18 03:34:42;;;;;;;9.15;5.35;;;;;;;;;;1733709;82;21536;-65
2022/08/18 03:37:09;;;;;;;10.55;6.35;;;;;;;;;;1746856;82;21022;-65
2022/08/18 03:39:35;;;;;;;10.55;4.95;;;;;;;;;;1736872;82;21069;-65
2022/08/18 03:42:01;;;;;;;10.28;5.60;;;;;;;;;;1746891;82;21792;-65
2022/08/18 03:44:29;;;;;;;8.43;5.40;;;;;;;;;;1745522;82;21577;-64
2022/08/18 03:46:56;;;;;;;8.45;5.78;;;;;;;;;;1745358;82;21086;-65
2022/08/18 03:49:22;;;;;;;8.78;5.62;;;;;;;;;;1734154;82;20990;-64
2022/08/18 03:51:50;;;;;;;8.65;5.25;;;;;;;;;;1735144;82;21584;-65
2022/08/18 03:54:16;;;;;;;8.78;5.08;;;;;;;;;;1746621;82;21030;-65
2022/08/18 03:56:42;;;;;;;10.05;5.78;;;;;;;;;;1714805;82;21089;-66
2022/08/18 03:59:13;;;;;;;8.15;5.03;;;;;;;;;;1708820;84;21579;-66
2022/08/18 04:01:40;;;;;;;13.40;5.33;;;;;;;;;;1718992;82;21021;-65
2022/08/18 04:04:07;;;;;;;6.50;4.92;;;;;;;;;;1735241;82;21085;-65
2022/08/18 04:06:35;;;;;;;7.28;5.35;;;;;;;;;;1706546;83;21152;-65
2022/08/18 04:09:03;;;;;;;9.55;6.20;;;;;;;;;;1705733;84;21619;-65
2022/08/18 04:11:30;;;;;;;9.90;5.00;;;;;;;;;;1708679;84;21065;-65
2022/08/18 04:13:59;;;;;;;8.63;5.62;;;;;;;;;;1704576;84;21583;-65
2022/08/18 04:16:26;;;;;;;7.17;5.42;;;;;;;;;;1704987;84;21081;-65
2022/08/18 04:18:52;;;;;;;8.13;5.90;;;;;;;;;;1678238;85;21461;-64
2022/08/18 04:21:18;;;;;;;9.13;5.53;;;;;;;;;;1699019;84;21040;-64
2022/08/18 04:23:45;;;;;;;7.05;5.17;;;;;;;;;;1708653;83;21049;-64
2022/08/18 04:26:11;;;;;;;7.37;5.50;;;;;;;;;;1707879;84;21017;-64
2022/08/18 04:28:41;;;;;;;7.95;5.37;;;;;;;;;;1707334;83;21069;-64
2022/08/18 04:31:07;;;;;;;9.08;6.05;;;;;;;;;;1691024;84;21050;-64
2022/08/18 04:33:34;;;;;;;9.88;5.30;;;;;;;;;;1675870;85;21178;-64
2022/08/18 04:36:02;;;;;;;9.50;4.65;;;;;;;;;;1666331;86;21113;-64
2022/08/18 04:38:28;;;;;;;10.98;5.30;;;;;;;;;;1692447;84;21029;-65
2022/08/18 04:40:54;;;;;;;8.43;5.83;;;;;;;;;;1708935;84;21037;-65
2022/08/18 04:43:20;;;;;;;8.00;5.70;;;;;;;;;;1682093;84;21069;-65
2022/08/18 04:45:46;;;;;;;8.50;4.72;;;;;;;;;;1662353;86;21577;-64
2022/08/18 04:48:12;;;;;;;8.00;5.45;;;;;;;;;;1661948;85;21010;-64
2022/08/18 04:50:38;;;;;;;8.88;5.10;;;;;;;;;;1662854;86;21047;-64
2022/08/18 04:55:50;;;;;;;8.05;6.15;;;;;;;;;;1709000;84;21041;-64
2022/08/18 04:58:17;;;;;;;7.55;5.60;;;;;;;;;;1690500;83;21053;-64
2022/08/18 05:00:44;;;;;;;8.93;4.97;;;;;;;;;;1664744;85;21070;-66
2022/08/18 05:03:10;;;;;;;7.97;6.12;;;;;;;;;;1668889;85;21073;-63
2022/08/18 05:05:38;;;;;;;8.25;5.08;;;;;;;;;;1664150;85;21057;-64
2022/08/18 05:08:04;;;;;;;8.08;6.45;;;;;;;;;;1680130;85;21672;-64
2022/08/18 05:10:30;;;;;;;9.30;5.75;;;;;;;;;;1706589;84;21544;-64
2022/08/18 05:12:56;;;;;;;9.95;5.15;;;;;;;;;;1695543;84;21093;-66
2022/08/18 05:15:22;;;;;;;7.55;5.08;;;;;;;;;;1680111;85;21059;-64
2022/08/18 05:17:48;;;;;;;8.35;5.20;;;;;;;;;;1678160;84;21438;-64
2022/08/18 05:20:15;;;;;;;8.60;5.20;;;;;;;;;;1679993;85;21049;-64
2022/08/18 05:22:42;;;;;;;10.55;4.60;;;;;;;;;;1680023;85;21045;-64
2022/08/18 05:25:11;;;;;;;7.53;5.10;;;;;;;;;;1680233;84;21648;-68
2022/08/18 05:27:37;;;;;;;7.12;5.17;;;;;;;;;;1665890;85;21094;-65
2022/08/18 05:30:04;;;;;;;13.35;6.35;;;;;;;;;;1657509;85;21034;-65
2022/08/18 05:32:34;;;;;;;8.48;7.00;;;;;;;;;;1635677;86;21052;-65
2022/08/18 05:35:09;;;;;;;9.53;6.58;;;;;;;;;;1668668;85;21218;-65
2022/08/18 05:37:37;;;;;;;8.45;5.08;;;;;;;;;;1658221;85;21105;-67
2022/08/18 05:40:06;;;;;;;8.93;4.90;;;;;;;;;;1671600;83;21072;-65
2022/08/18 05:42:34;;;;;;;7.72;5.37;;;;;;;;;;1676346;85;21076;-66
2022/08/18 05:45:00;;;;;;;6.78;4.97;;;;;;;;;;1684978;85;21076;-65
2022/08/18 05:47:27;;;;;;;6.15;4.83;;;;;;;;;;1681334;84;21042;-66
2022/08/18 05:49:54;;;;;;;6.60;4.28;;;;;;;;;;1661312;85;21585;-66
2022/08/18 05:52:22;;;;;;;7.95;5.20;;;;;;;;;;1664437;85;21563;-66
2022/08/18 05:57:40;;;;;;;6.60;4.78;;;;;;;;;;1682444;85;21026;-66
2022/08/18 06:00:09;;;;;;;7.37;5.00;;;;;;;;;;1688416;84;21080;-66
2022/08/18 06:02:41;;;;;;;9.45;5.25;;;;;;;;;;1655389;85;21152;-66
2022/08/18 06:05:10;;;;;;;8.48;4.85;;;;;;;;;;1657605;84;21004;-66
2022/08/18 06:07:41;;;;;;;8.50;4.50;;;;;;;;;;1660447;85;21668;-65
2022/08/18 06:10:08;;;;;;;6.65;4.53;;;;;;;;;;1644558;85;20993;-66
2022/08/18 06:12:36;;;;;;;7.67;5.40;;;;;;;;;;1659230;86;21026;-66
2022/08/18 06:15:19;;;;;;;5.35;3.98;;;;;;;;;;1723611;83;21068;-66
2022/08/18 06:17:50;;;;;;;8.05;5.00;;;;;;;;;;1724858;82;21579;-65
2022/08/18 06:20:33;;;;;;;10.45;5.00;;;;;;;;;;1722977;83;21083;-66
2022/08/18 06:23:00;;;;;;;7.67;4.53;;;;;;;;;;1723815;82;21520;-66
2022/08/18 06:25:45;;;;;;;8.90;4.85;;;;;;;;;;1691369;83;21056;-66
2022/08/18 06:28:14;;;;;;;7.40;4.45;;;;;;;;;;1665114;84;21072;-64
2022/08/18 06:30:42;;;;;;;5.87;4.70;;;;;;;;;;1723741;81;21052;-72
2022/08/18 06:33:13;;;;;;;9.68;4.72;;;;;;;;;;1728833;81;22175;-71
2022/08/18 06:35:49;;;;;;;7.25;4.65;;;;;;;;;;1738846;82;21310;-74
2022/08/18 06:41:09;;;;;;;6.85;5.03;;;;;;;;;;1724098;82;21054;-74
2022/08/18 06:43:37;;;;;;;9.65;5.17;;;;;;;;;;1717101;83;21045;-75
2022/08/18 06:46:06;;;;;;;6.95;4.78;;;;;;;;;;1720917;82;21100;-73
2022/08/18 06:48:34;;;;;;;9.80;4.95;;;;;;;;;;1699208;82;22501;-74
2022/08/18 06:51:01;;;;;;;7.72;5.00;;;;;;;;;;1717979;82;21040;-73
2022/08/18 06:53:45;;;;;;;9.15;5.10;;;;;;;;;;1720215;83;21557;-73
2022/08/18 06:56:22;;;;;;;7.37;5.35;;;;;;;;;;1725978;82;21004;-73
2022/08/18 06:58:53;;;;;;;9.90;5.90;;;;;;;;;;1723443;81;21040;-75
2022/08/18 07:01:21;;;;;;;8.98;5.45;;;;;;;;;;1708853;83;21035;-73
2022/08/18 07:03:55;;;;;;;10.20;5.33;;;;;;;;;;1715791;83;21127;-74
2022/08/18 07:06:23;;;;;;;7.75;4.70;;;;;;;;;;1733263;81;21045;-73
2022/08/18 07:08:50;;;;;;;9.45;5.50;;;;;;;;;;1745853;82;21066;-73
2022/08/18 07:11:21;;;;;;;8.83;5.45;;;;;;;;;;1735892;82;21060;-73
2022/08/18 07:13:52;;;;;;;13.40;5.45;;;;;;;;;;1742316;82;21050;-73
2022/08/18 07:16:24;;;;;;;7.83;5.55;;;;;;;;;;1745807;82;21010;-72
2022/08/18 07:18:50;;;;;;;11.12;5.37;;;;;;;;;;1726412;82;21062;-75
2022/08/18 07:21:24;;;;;;;7.85;5.67;;;;;;;;;;1737310;82;21029;-73
2022/08/18 07:23:49;;;;;;;;;;;;;;;;;;1741247;82;21050;-74
2022/08/18 07:26:17;;;;;;;12.75;5.75;;;;;;;;;;1742738;82;20162;-75
2022/08/18 07:28:45;;;;;;;9.10;5.10;;;;;;;;;;1736786;82;21028;-74
2022/08/18 07:31:12;;;;;;;6.75;5.55;;;;;;;;;;1745855;82;21402;-74
2022/08/18 07:33:38;;;;;;;10.63;6.05;;;;;;;;;;1725448;82;21082;-74
2022/08/18 07:36:08;;;;;;;10.45;5.25;;;;;;;;;;1743054;81;21013;-73
2022/08/18 07:38:36;;;;;;;7.67;4.75;;;;;;;;;;1744690;82;21066;-74
2022/08/18 07:41:12;;;;;;;11.40;5.47;;;;;;;;;;1742013;82;21040;-72
2022/08/18 07:43:40;;;;;;;7.60;4.97;;;;;;;;;;1744472;82;21821;-75
2022/08/18 07:46:08;;;;;;;9.40;5.58;;;;;;;;;;1741791;82;21062;-74
2022/08/18 07:48:34;;;;;;;10.35;5.40;;;;;;;;;;1745864;82;21050;-73
2022/08/18 07:51:06;;;;;;;8.45;4.70;;;;;;;;;;1744637;82;21557;-75
2022/08/18 07:53:45;;;;;;;8.40;5.15;;;;;;;;;;1744047;82;21007;-74
2022/08/18 07:56:19;;;;;;;10.70;5.10;;;;;;;;;;1737150;82;21312;-73
2022/08/18 07:58:50;;;;;;;13.10;4.35;;;;;;;;;;1740507;82;21687;-74
2022/08/18 08:01:21;;;;;;;9.65;4.87;;;;;;;;;;1746023;81;21087;-74
2022/08/18 08:04:05;;;;;;;6.55;4.80;;;;;;;;;;1743219;82;21042;-73
2022/08/18 08:06:38;;;;;;;9.75;4.60;;;;;;;;;;1746749;82;21049;-75
2022/08/18 08:09:22;;;;;;;14.23;4.75;;;;;;;;;;1743642;82;21085;-75
2022/08/18 08:11:56;;;;;;;6.72;4.58;;;;;;;;;;1740975;82;21046;-74
2022/08/18 08:14:29;;;;;;;6.78;4.50;;;;;;;;;;1743797;82;21101;-75
2022/08/18 08:17:16;;;;;;;8.03;4.85;;;;;;;;;;1741578;82;21045;-75
2022/08/18 08:20:02;;;;;;;17.48;10.82;;;;;;;;;;1736876;81;21034;-73
2022/08/18 08:22:30;;;;;;;14.18;9.30;;;;;;;;;;1743662;82;21412;-73
2022/08/18 08:25:07;;;;;;;11.30;5.55;;;;;;;;;;1742454;81;21001;-72
2022/08/18 08:27:39;;;;;;;9.15;4.60;;;;;;;;;;1719973;82;21070;-72
2022/08/18 08:30:08;;;;;;;9.40;5.28;;;;;;;;;;1743598;82;21050;-72
2022/08/18 08:32:40;;;;;;;6.90;5.12;;;;;;;;;;1738306;81;21078;-71
2022/08/18 08:35:10;;;;;;;8.43;5.03;;;;;;;;;;1730823;82;21015;-71
2022/08/18 08:37:44;;;;;;;8.35;4.92;;;;;;;;;;1744382;82;21030;-71
2022/08/18 08:40:17;;;;;;;8.38;4.70;;;;;;;;;;1740195;82;21288;-72
2022/08/18 08:42:52;;;;;;;10.10;5.10;;;;;;;;;;1741822;82;21347;-72
2022/08/18 08:45:23;;;;;;;6.60;5.37;;;;;;;;;;1741918;82;21560;-71
2022/08/18 08:47:51;;;;;;;12.18;4.70;;;;;;;;;;1746111;82;21047;-72
2022/08/18 08:50:18;;;;;;;6.65;5.00;;;;;;;;;;1745248;82;21045;-73
2022/08/18 08:52:51;;;;;;;5.72;4.60;;;;;;;;;;1743251;82;21030;-72
2022/08/18 08:55:24;;;;;;;6.75;4.97;;;;;;;;;;1740894;82;20994;-73
2022/08/18 08:57:51;;;;;;;8.80;5.25;;;;;;;;;;1741360;82;21046;-73
2022/08/18 09:00:17;;;;;;;7.35;4.92;;;;;;;;;;1743862;82;21073;-73
2022/08/18 09:02:47;;;;;;;7.62;5.60;;;;;;;;;;1738281;82;21343;-73
2022/08/18 09:05:15;;;;;;;9.13;4.67;;;;;;;;;;1741875;82;21007;-72
2022/08/18 09:07:50;;;;;;;13.10;8.40;;;;;;;;;;1737575;81;21088;-78
2022/08/18 09:10:35;;;;;;;12.60;8.75;;;;;;;;;;1733466;81;21039;-76
2022/08/18 09:13:20;;;;;;;9.03;4.97;;;;;;;;;;1736228;83;21000;-72
2022/08/18 09:15:51;;;;;;;7.22;5.25;;;;;;;;;;1731891;81;21004;-72
2022/08/18 09:18:36;;;;;;;9.35;4.75;;;;;;;;;;1701312;83;21068;-72
2022/08/18 09:21:18;;;;;;;8.18;5.20;;;;;;;;;;1733554;81;21020;-72
2022/08/18 09:23:45;;;;;;;8.75;4.70;;;;;;;;;;1730622;81;21472;-71
2022/08/18 09:26:22;;;;;;;6.12;4.85;;;;;;;;;;1728795;81;21048;-72
2022/08/18 09:28:55;;;;;;;9.10;4.78;;;;;;;;;;1684995;83;21067;-73
2022/08/18 09:31:22;;;;;;;9.10;4.87;;;;;;;;;;1731602;81;21060;-74
2022/08/18 09:33:57;;;;;;;7.85;5.17;;;;;;;;;;1726897;82;21054;-73
2022/08/18 09:36:38;;;;;;;7.53;5.05;;;;;;;;;;1729554;83;21536;-74
2022/08/18 09:42:09;;;;;;;9.70;5.25;;;;;;;;;;1710334;83;21044;-74
2022/08/18 09:44:49;;;;;;;8.73;5.12;;;;;;;;;;1732899;81;21192;-73
2022/08/18 09:47:23;;;;;;;8.83;4.47;;;;;;;;;;1721110;83;21050;-73
2022/08/18 09:49:52;;;;;;;10.00;4.92;;;;;;;;;;1731363;83;21024;-73
2022/08/18 09:52:25;;;;;;;8.15;5.35;;;;;;;;;;1733066;81;21008;-73
2022/08/18 09:54:59;;;;;;;8.68;5.15;;;;;;;;;;1737025;82;20981;-74
2022/08/18 09:57:27;;;;;;;6.92;4.60;;;;;;;;;;1717071;83;21032;-74
2022/08/18 09:59:58;;;;;;;8.20;4.90;;;;;;;;;;1722807;83;21090;-73
2022/08/18 10:02:32;;;;;;;28.80;19.80;;;;;;;;;;1733276;81;21048;-72
2022/08/18 10:05:17;;;;;;;26.95;23.18;;;;;;;;;;1727204;83;21079;-72
2022/08/18 10:07:57;;;;;;;11.40;5.70;;;;;;;;;;1717720;82;21603;-72
2022/08/18 10:10:25;;;;;;;7.15;4.53;;;;;;;;;;1718716;83;21052;-72
2022/08/18 10:13:01;;;;;;;8.00;4.70;;;;;;;;;;1724412;83;21068;-72
2022/08/18 10:15:46;;;;;;;8.40;4.55;;;;;;;;;;1675693;83;21024;-73
2022/08/18 10:18:26;;;;;;;8.58;5.03;;;;;;;;;;1657205;85;21572;-72
2022/08/18 10:20:58;;;;;;;12.45;4.67;;;;;;;;;;1662673;85;21092;-73
2022/08/18 10:23:42;;;;;;;11.80;5.78;;;;;;;;;;1659412;86;21085;-74
2022/08/18 10:26:27;;;;;;;17.85;9.73;;;;;;;;;;1686733;83;21579;-72
2022/08/18 10:28:54;;;;;;;18.98;9.73;;;;;;;;;;1659960;85;21052;-72
2022/08/18 10:31:20;;;;;;;6.55;4.55;;;;;;;;;;1690843;85;21556;-71
2022/08/18 10:33:56;;;;;;;7.70;4.90;;;;;;;;;;1634151;86;21095;-73
2022/08/18 10:36:33;;;;;;;9.58;5.30;;;;;;;;;;1686741;83;21053;-73
2022/08/18 10:38:59;;;;;;;10.68;6.35;;;;;;;;;;1616985;88;21521;-75
2022/08/18 10:41:27;;;;;;;6.87;4.97;;;;;;;;;;1634826;86;21065;-72
2022/08/18 10:43:54;;;;;;;5.55;4.40;;;;;;;;;;1654980;85;21116;-74
2022/08/18 10:46:20;;;;;;;6.45;4.22;;;;;;;;;;1658253;86;21302;-73
2022/08/18 10:48:56;;;;;;;9.38;4.80;;;;;;;;;;1662094;86;21057;-74
2022/08/18 10:51:25;;;;;;;6.50;4.37;;;;;;;;;;1664546;85;21068;-73
2022/08/18 10:53:55;;;;;;;9.40;4.67;;;;;;;;;;1690573;85;21104;-72
2022/08/18 10:56:40;;;;;;;9.85;4.37;;;;;;;;;;1656663;86;21062;-72
2022/08/18 10:59:11;;;;;;;7.60;4.70;;;;;;;;;;1653858;85;21634;-74
2022/08/18 11:01:48;;;;;;;7.03;4.50;;;;;;;;;;1683433;83;21036;-74
2022/08/18 11:04:33;;;;;;;7.08;4.80;;;;;;;;;;1688606;85;21060;-73
2022/08/18 11:07:01;;;;;;;8.60;4.70;;;;;;;;;;1690030;83;20990;-74
2022/08/18 11:09:28;;;;;;;10.95;4.83;;;;;;;;;;1654965;85;20993;-74
2022/08/18 11:11:54;;;;;;;10.88;4.90;;;;;;;;;;1687067;83;21057;-72
2022/08/18 11:14:34;;;;;;;11.43;4.83;;;;;;;;;;1661990;85;21686;-73
2022/08/18 11:17:05;;;;;;;7.65;4.80;;;;;;;;;;1664557;85;21138;-76
2022/08/18 11:19:37;;;;;;;10.48;5.17;;;;;;;;;;1660113;85;21597;-74
2022/08/18 11:22:03;;;;;;;8.85;4.50;;;;;;;;;;1637288;86;21113;-75
2022/08/18 11:24:34;;;;;;;6.08;4.33;;;;;;;;;;1686455;83;21117;-74
2022/08/18 11:27:02;;;;;;;14.68;6.37;;;;;;;;;;1690343;83;21027;-74
2022/08/18 11:29:38;;;;;;;11.83;5.22;;;;;;;;;;1687800;85;21100;-74
2022/08/18 11:32:12;;;;;;;12.73;9.78;;;;;;;;;;1688600;83;21092;-74
2022/08/18 11:34:42;;;;;;;14.07;10.60;;;;;;;;;;1657062;86;21591;-73
2022/08/18 11:37:12;;;;;;;18.70;13.53;;;;;;;;;;1656486;86;21566;-73
2022/08/18 11:39:41;;;;;;;8.05;5.50;;;;;;;;;;1656595;85;21603;-73
2022/08/18 11:42:58;;;;;;;9.15;4.87;;;;;;;;;;1792192;78;22120;-74
2022/08/18 11:45:25;;;;;;;9.23;5.50;;;;;;;;;;1794985;78;21022;-74
2022/08/18 11:48:09;;;;;;;9.40;4.67;;;;;;;;;;1796079;78;21046;-74
2022/08/18 11:50:38;;;;;;;7.70;4.55;;;;;;;;;;1796580;78;21555;-71
2022/08/18 11:53:09;;;;;;;10.38;5.78;;;;;;;;;;1794554;78;21539;-73
2022/08/18 11:55:35;;;;;;;6.75;4.37;;;;;;;;;;1789450;78;22101;-71
2022/08/18 11:58:03;;;;;;;6.65;4.33;;;;;;;;;;1797595;78;21000;-73
2022/08/18 12:00:44;;;;;;;7.30;4.20;;;;;;;;;;1797563;78;21129;-74
2022/08/18 12:03:14;;;;;;;7.75;4.20;;;;;;;;;;1799087;78;21044;-73
2022/08/18 12:05:42;;;;;;;7.00;4.50;;;;;;;;;;1796928;78;21048;-73
2022/08/18 12:08:27;;;;;;;7.62;4.25;;;;;;;;;;1799166;78;21128;-72
2022/08/18 12:11:09;;;;;;;7.03;4.25;;;;;;;;;;1797174;78;21029;-73
2022/08/18 12:13:36;;;;;;;10.70;4.92;;;;;;;;;;1796327;78;21017;-73
2022/08/18 12:16:09;;;;;;;8.35;4.53;;;;;;;;;;1799715;78;21632;-73
2022/08/18 12:18:39;;;;;;;8.65;4.50;;;;;;;;;;1799852;78;20994;-74
2022/08/18 12:21:05;;;;;;;5.65;4.28;;;;;;;;;;1799457;78;21573;-73
2022/08/18 12:23:34;;;;;;;8.70;4.67;;;;;;;;;;1794999;78;21121;-73
2022/08/18 12:26:00;;;;;;;7.72;4.47;;;;;;;;;;1759775;80;21000;-74
2022/08/18 12:28:26;;;;;;;8.55;4.60;;;;;;;;;;1751366;80;21031;-75
2022/08/18 12:30:52;;;;;;;6.62;4.47;;;;;;;;;;1743902;80;21516;-73
2022/08/18 12:33:18;;;;;;;11.78;8.38;;;;;;;;;;1743234;80;21491;-74
2022/08/18 12:35:45;;;;;;;14.73;10.48;;;;;;;;;;1745994;80;21045;-75
2022/08/18 12:38:13;;;;;;;8.68;6.28;;;;;;;;;;1756710;80;21045;-75
2022/08/18 12:40:39;;;;;;;8.40;4.87;;;;;;;;;;1746280;81;21001;-76
2022/08/18 12:43:05;;;;;;;9.03;4.80;;;;;;;;;;1757731;80;21632;-75
2022/08/18 12:45:32;;;;;;;10.13;4.60;;;;;;;;;;1758611;81;21571;-76
2022/08/18 12:48:01;;;;;;;6.87;4.60;;;;;;;;;;1789621;79;21511;-74
2022/08/18 12:50:26;;;;;;;8.25;4.58;;;;;;;;;;1789049;79;21021;-74
2022/08/18 12:52:52;;;;;;;9.55;4.78;;;;;;;;;;1786195;79;21573;-75
2022/08/18 12:55:18;;;;;;;9.48;4.65;;;;;;;;;;1780750;79;21009;-75
2022/08/18 12:57:44;;;;;;;6.78;4.20;;;;;;;;;;1793399;79;21005;-74
2022/08/18 13:00:11;;;;;;;8.80;4.37;;;;;;;;;;1786607;79;21087;-74
2022/08/18 13:02:38;;;;;;;9.10;3.87;;;;;;;;;;1789678;79;21508;-73
2022/08/18 13:05:06;;;;;;;8.80;4.45;;;;;;;;;;1787325;79;21087;-73
2022/08/18 13:07:33;;;;;;;10.85;4.33;;;;;;;;;;1791249;79;20926;-74
2022/08/18 13:10:00;;;;;;;6.30;4.80;;;;;;;;;;1778955;79;21024;-73
2022/08/18 13:12:29;;;;;;;9.15;4.33;;;;;;;;;;1796568;79;21030;-73
2022/08/18 13:14:56;;;;;;;7.00;4.90;;;;;;;;;;1780680;79;20965;-73
2022/08/18 13:17:22;;;;;;;8.55;4.33;;;;;;;;;;1789370;79;21035;-74
2022/08/18 13:19:48;;;;;;;7.53;4.70;;;;;;;;;;1792381;79;20988;-74
2022/08/18 13:22:14;;;;;;;6.45;4.30;;;;;;;;;;1794724;79;21465;-74
2022/08/18 13:24:41;;;;;;;4.83;4.05;;;;;;;;;;1785052;79;20995;-74
2022/08/18 13:27:07;;;;;;;7.70;4.10;;;;;;;;;;1788263;79;21435;-73
2022/08/18 13:29:33;;;;;;;7.17;4.05;;;;;;;;;;1767034;80;21033;-74
2022/08/18 13:31:59;;;;;;;6.03;4.28;;;;;;;;;;1784965;79;20958;-75
2022/08/18 13:34:27;;;;;;;7.00;4.25;;;;;;;;;;1783610;79;21033;-74
2022/08/18 13:36:55;;;;;;;8.98;4.62;;;;;;;;;;1778885;79;21026;-75
2022/08/18 13:39:22;;;;;;;9.45;4.28;;;;;;;;;;1789727;79;20999;-74
2022/08/18 13:41:48;;;;;;;8.95;4.28;;;;;;;;;;1782810;79;21076;-74
2022/08/18 13:44:17;;;;;;;8.38;4.83;;;;;;;;;;1782505;79;20965;-75
2022/08/18 13:46:47;;;;;;;7.60;4.40;;;;;;;;;;1795179;79;20946;-75
2022/08/18 13:49:15;;;;;;;9.50;4.05;;;;;;;;;;1741374;81;21022;-75
2022/08/18 13:51:42;;;;;;;5.90;4.12;;;;;;;;;;1743644;81;21470;-75
2022/08/18 13:54:08;;;;;;;5.22;3.67;;;;;;;;;;1791080;79;20981;-74
2022/08/18 13:56:34;;;;;;;10.00;4.47;;;;;;;;;;1794520;79;21036;-74
2022/08/18 13:59:03;;;;;;;7.03;3.85;;;;;;;;;;1788244;79;21044;-72
2022/08/18 14:01:30;;;;;;;6.65;3.98;;;;;;;;;;1789530;79;21033;-75
2022/08/18 14:03:58;;;;;;;10.32;4.25;;;;;;;;;;1791197;79;20953;-74
2022/08/18 14:06:26;;;;;;;8.68;4.67;;;;;;;;;;1794166;79;21026;-73
2022/08/18 14:08:52;;;;;;;7.95;4.40;;;;;;;;;;1791766;79;21031;-74
2022/08/18 14:11:19;;;;;;;7.85;5.25;;;;;;;;;;1790040;79;21005;-73
2022/08/18 14:13:48;;;;;;;8.45;4.60;;;;;;;;;;1792380;79;20993;-73
2022/08/18 14:16:14;;;;;;;5.55;4.17;;;;;;;;;;1789766;79;21001;-72
2022/08/18 14:18:40;;;;;;;6.87;4.37;;;;;;;;;;1791339;79;21044;-72
2022/08/18 14:26:47;;;;;;;8.90;3.98;;;;;;;;;;1778459;81;21029;-74
2022/08/18 14:29:14;;;;;;;8.10;3.85;;;;;;;;;;1787309;78;21473;-75
2022/08/18 14:31:41;;;;;;;7.67;3.90;;;;;;;;;;1799888;79;20948;-74
2022/08/18 14:34:07;;;;;;;5.15;3.62;;;;;;;;;;1794155;78;21137;-74
2022/08/18 14:36:33;;;;;;;5.25;4.17;;;;;;;;;;1779013;79;20984;-74
2022/08/18 14:38:59;;;;;;;8.28;3.72;;;;;;;;;;1781732;79;21024;-73
2022/08/18 14:41:27;;;;;;;6.35;4.20;;;;;;;;;;1784916;79;21036;-74
2022/08/18 14:43:55;;;;;;;9.10;3.92;;;;;;;;;;1789519;79;21063;-73
2022/08/18 14:46:21;;;;;;;9.25;4.28;;;;;;;;;;1796922;79;21521;-73
2022/08/18 14:48:48;;;;;;;13.22;4.20;;;;;;;;;;1791340;78;21013;-73
2022/08/18 14:51:14;;;;;;;8.08;4.03;;;;;;;;;;1790894;79;21033;-73
2022/08/18 14:53:42;;;;;;;7.75;3.92;;;;;;;;;;1794395;79;20973;-74
2022/08/18 14:56:11;;;;;;;7.80;4.25;;;;;;;;;;1788114;79;20982;-72
2022/08/18 14:58:39;;;;;;;5.80;4.58;;;;;;;;;;1785294;79;21002;-71
2022/08/18 15:01:06;;;;;;;7.33;4.40;;;;;;;;;;1793764;79;21064;-74
2022/08/18 15:03:33;;;;;;;8.33;4.30;;;;;;;;;;1802469;79;20997;-74
2022/08/18 15:05:59;;;;;;;6.50;4.42;;;;;;;;;;1787013;79;21064;-72
2022/08/18 15:08:25;;;;;;;5.60;3.90;;;;;;;;;;1786532;79;21043;-71
2022/08/18 15:10:53;;;;;;;5.22;3.62;;;;;;;;;;1788321;79;21032;-73
2022/08/18 15:13:19;;;;;;;7.22;3.85;;;;;;;;;;1787001;79;21018;-74
2022/08/18 15:15:48;;;;;;;6.12;4.10;;;;;;;;;;1799604;79;21095;-73
2022/08/18 15:18:13;;;;;;;5.70;3.72;;;;;;;;;;1786202;79;21006;-73
2022/08/18 15:26:09;;;;;;;9.75;4.58;;;;;;;;;;1786531;79;20985;-72
2022/08/18 15:28:38;;;;;;;4.90;3.58;;;;;;;;;;1792871;79;21037;-72